LSMA

Details ICAO LSMA
Name Alpnach
Region Switzerland
Timezone Europe/Zurich (UTC+2.0)
Plans Departing 28
Arriving 25
Stats Elevation 1,460 ft / 445 m (AMSL)
Location 46.943300° 8.285000°
Runways 1
Magnetic Variation 2.691° E
Sunrise 2021-05-16 03:51:52 UTC / 2021-05-16 05:51:52 Local
Sunset 2021-05-16 18:57:22 UTC / 2021-05-16 20:57:22 Local
Advertisement - Login to hide

Runways

ID Width Length Bearing (true/mag) Surface Threshold Overrun Markings Lighting
01 130 ft / 40 m 4,936 ft / 1,504 m 9.69° / 7.00° ASPHALT 0 ft / 0 m 328 ft / 100 m APP EDGE THRESHOLD SALS TDZ
19 130 ft / 40 m 4,936 ft / 1,504 m 189.69° / 187.00° ASPHALT 0 ft / 0 m 1,640 ft / 500 m APP EDGE THRESHOLD MALS

Map

Weather


0- 5 10 15 20 25 30 35+ Temperature / °C

Clouds and Precipitation
Forecast for 2021-03-22 12:00 UTC. Updated 2 months ago

Ground ~20,000 ft ~40,000 ft Winds

METAR

LSMA 160820Z AUTO 23004KT 190V260 9999NDV FEW035 BKN053 11/08 Q1009 RMK

TAF

Not found

Frequencies

Tower 119.62 MHz
Warning: Do not use this data for real-world aviation or navigation. No guarantee of current accuracy is given.